createdAt,value
2018-07-25T00:03:08.713Z,9.78
2018-07-25T00:06:33.273Z,9.88
2018-07-25T00:09:57.811Z,8.80
2018-07-25T00:13:23.477Z,9.25
2018-07-25T00:16:48.120Z,10.03
2018-07-25T00:20:12.755Z,10.30
2018-07-25T00:23:37.205Z,10.08
2018-07-25T00:27:01.651Z,9.88
2018-07-25T00:30:26.105Z,9.88
2018-07-25T00:33:50.559Z,9.43
2018-07-25T00:37:14.971Z,10.30
2018-07-25T00:40:39.399Z,9.83
2018-07-25T00:44:03.809Z,9.53
2018-07-25T00:47:28.219Z,10.25
2018-07-25T00:50:52.740Z,9.73
2018-07-25T00:54:17.167Z,10.72
2018-07-25T00:57:41.589Z,10.35
2018-07-25T01:01:06.021Z,10.93
2018-07-25T01:04:30.411Z,10.68
2018-07-25T01:07:55.022Z,10.55
2018-07-25T01:11:19.591Z,11.40
2018-07-25T01:14:44.081Z,11.60
2018-07-25T01:18:08.892Z,12.10
2018-07-25T01:21:33.417Z,11.05
2018-07-25T01:24:57.988Z,10.53
2018-07-25T01:28:22.573Z,11.68
2018-07-25T01:31:47.087Z,10.98
2018-07-25T01:35:11.658Z,10.75
2018-07-25T01:38:36.175Z,10.93
2018-07-25T01:42:00.750Z,10.55
2018-07-25T01:45:25.235Z,11.65
2018-07-25T01:48:49.694Z,11.25
2018-07-25T01:52:14.220Z,10.85
2018-07-25T01:55:38.720Z,10.08
2018-07-25T01:59:03.320Z,11.10
2018-07-25T02:02:27.911Z,10.93
2018-07-25T02:05:52.498Z,10.93
2018-07-25T02:09:17.047Z,11.33
2018-07-25T02:12:41.661Z,10.78
2018-07-25T02:16:06.286Z,11.12
2018-07-25T02:19:30.902Z,11.63
2018-07-25T02:22:55.428Z,10.58
2018-07-25T02:26:19.919Z,11.48
2018-07-25T02:29:44.366Z,12.13
2018-07-25T02:33:08.880Z,12.25
2018-07-25T02:36:33.378Z,11.53
2018-07-25T02:39:57.926Z,12.82
2018-07-25T02:43:22.492Z,11.15
2018-07-25T02:46:47.035Z,11.85
2018-07-25T02:50:11.574Z,12.13
2018-07-25T02:53:36.147Z,11.65
2018-07-25T02:57:00.838Z,11.03
2018-07-25T03:00:25.302Z,12.30
2018-07-25T03:03:49.892Z,12.05
2018-07-25T03:07:14.447Z,12.73
2018-07-25T03:10:43.484Z,12.18
2018-07-25T03:14:07.966Z,11.33
2018-07-25T03:17:32.396Z,12.25
2018-07-25T03:20:57.172Z,12.23
2018-07-25T03:24:21.579Z,12.30
2018-07-25T03:27:46.055Z,12.37
2018-07-25T03:31:10.513Z,12.37
2018-07-25T03:34:34.916Z,12.45
2018-07-25T03:37:59.368Z,13.00
2018-07-25T03:41:23.797Z,12.73
2018-07-25T03:44:48.242Z,13.10
2018-07-25T03:48:12.953Z,13.48
2018-07-25T03:51:37.406Z,12.70
2018-07-25T03:55:02.015Z,12.65
2018-07-25T03:58:26.465Z,12.28
2018-07-25T04:01:50.944Z,12.10
2018-07-25T04:05:15.408Z,11.90
2018-07-25T04:08:39.824Z,11.93
2018-07-25T04:12:04.229Z,12.05
2018-07-25T04:15:28.655Z,11.12
2018-07-25T04:18:53.096Z,10.78
2018-07-25T04:22:17.557Z,11.80
2018-07-25T04:25:41.998Z,11.25
2018-07-25T04:29:06.466Z,12.00
2018-07-25T04:32:30.901Z,11.45
2018-07-25T04:35:55.366Z,12.13
2018-07-25T04:39:19.791Z,10.80
2018-07-25T04:42:44.255Z,10.75
2018-07-25T04:46:08.833Z,11.15
2018-07-25T04:49:33.402Z,11.00
2018-07-25T04:52:58.010Z,11.55
2018-07-25T04:56:22.575Z,10.60
2018-07-25T04:59:47.315Z,12.25
2018-07-25T05:03:11.839Z,11.50
2018-07-25T05:06:36.422Z,11.85
2018-07-25T05:10:00.939Z,11.40
2018-07-25T05:13:25.416Z,12.03
2018-07-25T05:16:49.662Z,11.20
2018-07-25T05:20:14.276Z,12.07
2018-07-25T05:23:38.817Z,12.28
2018-07-25T05:27:03.356Z,12.03
2018-07-25T05:30:27.933Z,11.35
2018-07-25T05:33:52.514Z,10.68
2018-07-25T05:37:17.115Z,11.70
2018-07-25T05:40:41.631Z,11.38
2018-07-25T05:44:06.381Z,11.73
2018-07-25T05:47:30.924Z,11.80
2018-07-25T05:50:55.474Z,12.50
2018-07-25T05:54:20.169Z,10.70
2018-07-25T05:57:44.716Z,9.88
2018-07-25T06:01:09.591Z,12.03
2018-07-25T06:04:34.123Z,14.00
2018-07-25T06:07:58.612Z,12.33
2018-07-25T06:11:23.124Z,12.35
2018-07-25T06:14:47.662Z,11.00
2018-07-25T06:18:13.083Z,12.33
2018-07-25T06:21:37.254Z,11.75
2018-07-25T06:25:01.738Z,13.65
2018-07-25T06:28:26.276Z,14.93
2018-07-25T06:31:50.837Z,12.63
2018-07-25T06:35:15.513Z,12.35
2018-07-25T06:38:40.043Z,12.45
2018-07-25T06:42:04.596Z,13.68
2018-07-25T06:45:29.119Z,11.93
2018-07-25T06:48:53.646Z,13.40
2018-07-25T06:52:17.957Z,13.18
2018-07-25T06:55:42.434Z,13.43
2018-07-25T06:59:06.978Z,15.03
2018-07-25T07:02:31.429Z,13.58
2018-07-25T07:05:56.119Z,15.63
2018-07-25T07:09:20.612Z,15.65
2018-07-25T07:12:45.260Z,13.93
2018-07-25T07:16:09.836Z,13.80
2018-07-25T07:19:34.405Z,13.25
2018-07-25T07:22:58.962Z,14.43
2018-07-25T07:26:23.515Z,15.88
2018-07-25T07:29:48.097Z,15.40
2018-07-25T07:33:12.716Z,13.85
2018-07-25T07:36:37.283Z,13.22
2018-07-25T07:40:01.839Z,13.55
2018-07-25T07:43:26.496Z,16.42
2018-07-25T07:46:51.091Z,16.80
2018-07-25T07:50:15.664Z,14.55
2018-07-25T07:53:40.240Z,16.97
2018-07-25T07:57:04.829Z,15.78
2018-07-25T08:00:29.412Z,15.45
2018-07-25T08:03:54.162Z,17.70
2018-07-25T08:07:18.671Z,16.23
2018-07-25T08:10:43.338Z,15.63
2018-07-25T08:14:07.873Z,17.55
2018-07-25T08:17:32.440Z,16.10
2018-07-25T08:20:57.035Z,14.33
2018-07-25T08:24:21.551Z,13.53
2018-07-25T08:27:46.114Z,12.05
2018-07-25T08:31:10.718Z,13.62
2018-07-25T08:34:35.428Z,13.13
2018-07-25T08:37:59.937Z,12.55
2018-07-25T08:41:24.561Z,10.95
2018-07-25T08:44:49.144Z,12.33
2018-07-25T08:48:13.737Z,12.75
2018-07-25T08:51:38.308Z,15.15
2018-07-25T08:55:02.916Z,13.00
2018-07-25T08:58:27.861Z,13.70
2018-07-25T09:01:52.416Z,13.70
2018-07-25T09:05:17.152Z,12.63
2018-07-25T09:08:41.760Z,13.48
2018-07-25T09:12:06.412Z,12.60
2018-07-25T09:15:30.979Z,11.97
2018-07-25T09:18:55.735Z,11.65
2018-07-25T09:22:20.275Z,12.00
2018-07-25T09:25:44.808Z,9.78
2018-07-25T09:29:09.453Z,10.35
2018-07-25T09:32:33.943Z,12.03
2018-07-25T09:35:58.435Z,9.43
2018-07-25T09:39:22.963Z,8.50
2018-07-25T09:42:47.556Z,10.25
2018-07-25T09:46:12.072Z,8.60
2018-07-25T09:49:36.592Z,9.10
2018-07-25T09:53:01.227Z,8.15
2018-07-25T09:56:25.728Z,7.72
2018-07-25T09:59:50.389Z,9.20
2018-07-25T10:03:15.087Z,7.80
2018-07-25T10:06:39.682Z,8.23
2018-07-25T10:10:05.209Z,7.75
2018-07-25T10:13:29.791Z,7.25
2018-07-25T10:16:54.626Z,7.50
2018-07-25T10:20:19.158Z,7.90
2018-07-25T10:23:44.102Z,7.85
2018-07-25T10:27:08.701Z,7.97
2018-07-25T10:30:34.086Z,8.08
2018-07-25T10:33:59.465Z,7.65
2018-07-25T10:37:24.759Z,7.92
2018-07-25T10:40:49.471Z,10.58
2018-07-25T10:44:13.887Z,8.48
2018-07-25T10:47:38.360Z,7.85
2018-07-25T10:51:02.806Z,7.25
2018-07-25T10:54:27.223Z,9.50
2018-07-25T10:57:51.687Z,7.42
2018-07-25T11:01:16.160Z,8.28
2018-07-25T11:04:40.599Z,7.72
2018-07-25T11:08:05.075Z,8.30
2018-07-25T11:11:30.543Z,8.03
2018-07-25T11:14:54.972Z,8.68
2018-07-25T11:18:19.440Z,7.83
2018-07-25T11:21:43.858Z,8.50
2018-07-25T11:25:08.427Z,8.98
2018-07-25T11:28:32.891Z,7.95
2018-07-25T11:31:57.461Z,9.15
2018-07-25T11:35:21.877Z,8.53
2018-07-25T11:38:46.444Z,7.55
2018-07-25T11:42:10.932Z,8.40
2018-07-25T11:45:35.406Z,9.00
2018-07-25T11:48:59.898Z,8.98
2018-07-25T11:52:24.446Z,7.58
2018-07-25T11:55:49.089Z,8.30
2018-07-25T11:59:13.637Z,8.63
2018-07-25T12:02:38.187Z,7.62
2018-07-25T12:06:02.709Z,8.03
2018-07-25T12:09:27.198Z,7.75
2018-07-25T12:12:51.622Z,8.15
2018-07-25T12:16:16.131Z,8.50
2018-07-25T12:19:40.635Z,8.55
2018-07-25T12:23:05.084Z,7.92
2018-07-25T12:26:29.609Z,7.40
2018-07-25T12:29:54.039Z,7.33
2018-07-25T12:33:18.759Z,7.65
2018-07-25T12:36:43.310Z,7.42
2018-07-25T12:40:08.008Z,7.97
2018-07-25T12:43:32.464Z,7.83
2018-07-25T12:46:56.975Z,7.92
2018-07-25T12:50:21.418Z,8.80
2018-07-25T12:53:45.926Z,8.58
2018-07-25T12:57:10.490Z,8.88
2018-07-25T13:00:35.522Z,8.70
2018-07-25T13:04:00.016Z,7.58
2018-07-25T13:07:24.469Z,7.35
2018-07-25T13:10:48.977Z,7.92
2018-07-25T13:14:13.475Z,8.00
2018-07-25T13:17:37.969Z,8.93
2018-07-25T13:21:02.555Z,8.05
2018-07-25T13:24:27.012Z,7.50
2018-07-25T13:27:51.578Z,8.10
2018-07-25T13:31:16.107Z,7.72
2018-07-25T13:34:40.722Z,8.15
2018-07-25T13:38:05.201Z,8.63
2018-07-25T13:41:29.741Z,7.75
2018-07-25T13:44:54.203Z,8.03
2018-07-25T13:48:18.750Z,8.45
2018-07-25T13:51:43.261Z,8.13
2018-07-25T13:55:07.764Z,6.85
2018-07-25T13:58:32.325Z,7.00
2018-07-25T14:01:56.899Z,7.35
2018-07-25T14:05:23.536Z,7.78
2018-07-25T14:08:47.955Z,7.85
2018-07-25T14:12:17.706Z,7.35
2018-07-25T14:15:42.279Z,8.48
2018-07-25T14:19:07.512Z,7.78
2018-07-25T14:22:32.042Z,8.00
2018-07-25T14:25:56.627Z,7.78
2018-07-25T14:29:21.287Z,7.75
2018-07-25T14:32:45.864Z,7.15
2018-07-25T14:36:10.477Z,7.65
2018-07-25T14:39:35.017Z,7.60
2018-07-25T14:42:59.596Z,8.00
2018-07-25T14:46:24.284Z,7.97
2018-07-25T14:49:48.501Z,7.33
2018-07-25T14:53:13.038Z,7.33
2018-07-25T14:56:37.637Z,8.95
2018-07-25T15:00:02.238Z,7.70
2018-07-25T15:03:26.776Z,8.45
2018-07-25T15:06:51.388Z,7.92
2018-07-25T15:10:15.914Z,8.85
2018-07-25T15:13:40.423Z,8.40
2018-07-25T15:17:05.067Z,6.90
2018-07-25T15:20:29.607Z,6.97
2018-07-25T15:23:59.840Z,7.87
2018-07-25T15:27:24.365Z,7.12
2018-07-25T15:30:48.574Z,7.30
2018-07-25T15:34:12.993Z,7.45
2018-07-25T15:37:37.453Z,8.00
2018-07-25T15:41:01.973Z,9.20
2018-07-25T15:44:27.369Z,10.75
2018-07-25T15:47:51.841Z,10.75
2018-07-25T15:51:16.402Z,11.25
2018-07-25T15:54:41.015Z,11.12
2018-07-25T15:58:05.620Z,12.47
2018-07-25T16:01:30.447Z,12.30
2018-07-25T16:04:55.314Z,12.37
2018-07-25T16:08:20.002Z,13.13
2018-07-25T16:11:44.543Z,13.20
2018-07-25T16:15:09.134Z,12.55
2018-07-25T16:18:33.592Z,16.23
2018-07-25T16:21:58.234Z,17.20
2018-07-25T16:25:22.764Z,17.35
2018-07-25T16:28:47.313Z,16.27
2018-07-25T16:32:11.971Z,16.37
2018-07-25T16:35:36.526Z,15.43
2018-07-25T16:39:01.058Z,16.52
2018-07-25T16:42:25.615Z,16.60
2018-07-25T16:45:50.174Z,16.85
2018-07-25T16:49:14.766Z,16.25
2018-07-25T16:52:39.402Z,18.73
2018-07-25T16:56:03.989Z,18.20
2018-07-25T16:59:28.527Z,15.83
2018-07-25T17:02:53.099Z,13.90
2018-07-25T17:06:17.720Z,14.75
2018-07-25T17:09:42.327Z,16.30
2018-07-25T17:13:06.885Z,13.38
2018-07-25T17:16:31.427Z,12.25
2018-07-25T17:19:56.061Z,13.05
2018-07-25T17:23:21.339Z,11.95
2018-07-25T17:26:45.871Z,12.28
2018-07-25T17:30:10.477Z,11.35
2018-07-25T17:33:34.997Z,11.12
2018-07-25T17:36:59.533Z,9.33
2018-07-25T17:40:24.018Z,10.90
2018-07-25T17:43:48.485Z,10.25
2018-07-25T17:47:13.009Z,11.40
2018-07-25T17:50:37.540Z,11.63
2018-07-25T17:54:02.047Z,12.37
2018-07-25T17:57:26.612Z,11.88
2018-07-25T18:00:51.188Z,10.58
2018-07-25T18:04:15.797Z,9.75
2018-07-25T18:07:40.365Z,8.73
2018-07-25T18:11:05.166Z,10.03
2018-07-25T18:14:29.657Z,9.18
2018-07-25T18:17:54.251Z,9.08
2018-07-25T18:21:18.782Z,8.23
2018-07-25T18:24:43.387Z,10.15
2018-07-25T18:28:08.046Z,8.98
2018-07-25T18:31:32.721Z,9.28
2018-07-25T18:34:57.363Z,8.38
2018-07-25T18:38:22.241Z,8.50
2018-07-25T18:41:47.188Z,8.48
2018-07-25T18:45:11.988Z,9.45
2018-07-25T18:48:36.872Z,8.85
2018-07-25T18:52:01.555Z,9.80
2018-07-25T18:55:26.223Z,8.85
2018-07-25T18:58:51.336Z,8.28
2018-07-25T19:02:16.427Z,7.65
2018-07-25T19:05:41.172Z,8.05
2018-07-25T19:09:10.769Z,7.87
2018-07-25T19:12:36.065Z,8.18
2018-07-25T19:16:01.031Z,7.30
2018-07-25T19:19:25.775Z,8.68
2018-07-25T19:22:51.423Z,8.73
2018-07-25T19:26:16.380Z,8.85
2018-07-25T19:29:41.114Z,7.67
2018-07-25T19:33:05.738Z,8.18
2018-07-25T19:36:30.817Z,7.53
2018-07-25T19:39:55.603Z,6.95
2018-07-25T19:43:20.225Z,7.40
2018-07-25T19:46:45.159Z,6.70
2018-07-25T19:50:09.898Z,8.13
2018-07-25T19:53:34.850Z,7.95
2018-07-25T19:56:59.791Z,8.58
2018-07-25T20:00:24.689Z,7.75
2018-07-25T20:03:49.838Z,7.60
2018-07-25T20:07:14.790Z,7.62
2018-07-25T20:10:39.601Z,8.90
2018-07-25T20:14:10.597Z,8.40
2018-07-25T20:17:35.366Z,8.58
2018-07-25T20:20:59.973Z,8.35
2018-07-25T20:24:24.766Z,8.80
2018-07-25T20:27:49.339Z,7.40
2018-07-25T20:31:14.185Z,7.92
2018-07-25T20:34:39.021Z,8.15
2018-07-25T20:38:03.790Z,7.80
2018-07-25T20:41:28.760Z,9.03
2018-07-25T20:44:53.375Z,8.30
2018-07-25T20:48:18.217Z,7.05
2018-07-25T20:51:42.742Z,7.75
2018-07-25T20:55:07.442Z,8.98
2018-07-25T20:58:32.103Z,8.05
2018-07-25T21:01:56.847Z,8.38
2018-07-25T21:05:21.477Z,6.95
2018-07-25T21:08:46.058Z,7.70
2018-07-25T21:12:10.690Z,7.67
2018-07-25T21:15:35.251Z,7.75
2018-07-25T21:18:59.854Z,8.43
2018-07-25T21:22:24.442Z,7.33
2018-07-25T21:25:49.039Z,9.13
2018-07-25T21:29:13.603Z,8.35
2018-07-25T21:32:38.172Z,8.25
2018-07-25T21:36:02.832Z,8.63
2018-07-25T21:39:27.397Z,7.67
2018-07-25T21:42:52.035Z,8.05
2018-07-25T21:46:16.612Z,8.55
2018-07-25T21:49:41.222Z,8.08
2018-07-25T21:53:05.977Z,8.53
2018-07-25T21:56:30.519Z,8.25
2018-07-25T21:59:55.124Z,8.35
2018-07-25T22:03:20.014Z,8.88
2018-07-25T22:06:44.523Z,8.60
2018-07-25T22:10:09.566Z,8.53
2018-07-25T22:13:34.147Z,7.62
2018-07-25T22:16:58.659Z,8.48
2018-07-25T22:20:23.080Z,9.80
2018-07-25T22:23:47.498Z,9.18
2018-07-25T22:27:12.049Z,9.25
2018-07-25T22:30:36.434Z,8.85
2018-07-25T22:34:01.022Z,8.18
2018-07-25T22:37:25.608Z,9.28
2018-07-25T22:40:50.099Z,8.83
2018-07-25T22:44:14.669Z,8.83
2018-07-25T22:47:39.195Z,7.92
2018-07-25T22:51:03.681Z,8.43
2018-07-25T22:54:28.154Z,8.45
2018-07-25T22:57:52.601Z,8.73
2018-07-25T23:01:17.037Z,8.40
2018-07-25T23:04:41.471Z,9.98
2018-07-25T23:08:06.131Z,8.75
2018-07-25T23:11:30.584Z,7.90
2018-07-25T23:14:55.055Z,8.53
2018-07-25T23:18:19.564Z,8.75
2018-07-25T23:21:44.040Z,9.25
2018-07-25T23:25:08.510Z,9.73
2018-07-25T23:28:32.929Z,9.80
2018-07-25T23:31:57.362Z,9.93
2018-07-25T23:35:22.160Z,8.90
2018-07-25T23:38:46.590Z,8.63
2018-07-25T23:42:11.090Z,8.98
2018-07-25T23:45:35.487Z,9.33
2018-07-25T23:48:59.926Z,9.03
2018-07-25T23:52:24.373Z,8.50
2018-07-25T23:55:48.779Z,9.43
2018-07-25T23:59:13.223Z,9.50
